Time;durP1;ratioP1;P1;durP2;ratioP2;P2;SDS_P1;SDS_P2;PMS_P1;PMS_P2;Temp;Humidity;BMP_temperature;BMP_pressure;BME280_temperature;BME280_humidity;BME280_pressure;Samples;Min_cycle;Max_cycle;Signal;HPM_P1;HPM_P2
2022/07/03 00:00:04;;;;;;;;;;;;;;;19.69;61.31;99981.88;1088184;54;20617;-83
2022/07/03 00:01:11;;;;;;;;;;;;;;;19.69;61.53;99987.31;1088194;54;19943;-80
2022/07/03 00:02:13;;;;;;;;;;;;;;;19.64;61.76;99985.22;1089676;39;20558;-82
2022/07/03 00:03:17;;;;;;;;;;;;;;;19.64;61.43;99978.97;1088123;54;19938;-81
2022/07/03 00:04:20;;;;;;;;;;;;;;;19.61;61.55;99984.78;1088144;54;19950;-81
2022/07/03 00:05:24;;;;;;;;;;;;;;;19.63;61.40;99988.13;1092243;39;20669;-80
2022/07/03 00:06:26;;;;;;;;;;;;;;;19.74;60.92;99982.09;1088160;54;19949;-84
2022/07/03 00:07:29;;;;;;;;;;;;;;;19.83;60.14;99987.34;1089040;39;20549;-83
2022/07/03 00:08:31;;;;;;;;;;;;;;;19.86;60.65;99976.09;1088210;54;19990;-86
2022/07/03 00:09:34;;;;;;;;;;;;;;;19.88;60.43;99984.84;1088211;54;19946;-86
2022/07/03 00:10:36;;;;;;;;;;;;;;;19.76;60.83;99990.84;1088233;54;19950;-85
2022/07/03 00:11:40;;;;;;;;;;;;;;;19.67;60.87;99989.38;1088173;54;19946;-85
2022/07/03 00:12:41;;;;;;;;;;;;;;;19.65;60.74;99991.47;1087754;54;19966;-84
2022/07/03 00:13:45;;;;;;;;;;;;;;;19.57;60.87;99984.38;1087804;54;19954;-86
2022/07/03 00:14:46;;;;;;;;;;;;;;;19.54;61.29;99994.78;1087986;54;19961;-85
2022/07/03 00:15:50;;;;;;;;;;;;;;;19.55;61.02;99991.03;1088211;54;19949;-85
2022/07/03 00:16:57;;;;;;;;;;;;;;;19.60;60.94;99983.13;1088207;54;19942;-86
2022/07/03 00:17:58;;;;;;;;;;;;;;;19.58;60.73;99991.47;1088174;54;19942;-84
2022/07/03 00:19:13;;;;;;;;;;;;;;;19.65;60.16;99988.75;1090383;46;20014;-86
2022/07/03 00:20:17;;;;;;;;;;;;;;;19.75;59.70;99985.66;1089642;39;20578;-84
2022/07/03 00:21:20;;;;;;;;;;;;;;;19.81;59.32;99987.53;1088194;54;19966;-85
2022/07/03 00:22:26;;;;;;;;;;;;;;;19.84;59.28;99978.97;1088219;54;19947;-86
2022/07/03 00:23:29;;;;;;;;;;;;;;;19.85;59.14;99980.69;1088204;54;19931;-84
2022/07/03 00:24:35;;;;;;;;;;;;;;;19.94;58.58;99981.28;1087856;54;19943;-84
2022/07/03 00:25:39;;;;;;;;;;;;;;;19.80;59.24;99978.56;1087765;54;19995;-86
2022/07/03 00:26:47;;;;;;;;;;;;;;;19.72;59.46;99988.75;1087736;54;19943;-86
2022/07/03 00:27:49;;;;;;;;;;;;;;;19.58;60.37;99991.47;1087547;54;20593;-85
2022/07/03 00:28:54;;;;;;;;;;;;;;;19.54;60.51;99989.38;1087719;54;19943;-84
2022/07/03 00:30:01;;;;;;;;;;;;;;;19.49;60.76;99992.69;1087793;54;20550;-86
2022/07/03 00:31:03;;;;;;;;;;;;;;;19.47;61.00;99989.34;1087781;54;20664;-85
2022/07/03 00:32:14;;;;;;;;;;;;;;;19.46;60.66;99991.22;1087744;54;19943;-85
2022/07/03 00:33:15;;;;;;;;;;;;;;;19.39;60.71;99986.84;1087681;54;19943;-87
2022/07/03 00:34:20;;;;;;;;;;;;;;;19.31;60.90;99985.97;1087709;54;19966;-84
2022/07/03 00:35:23;;;;;;;;;;;;;;;19.25;61.34;99985.97;1087756;54;20681;-86
2022/07/03 00:36:33;;;;;;;;;;;;;;;19.17;61.82;99993.22;1091800;39;20668;-86
2022/07/03 00:37:39;;;;;;;;;;;;;;;19.15;61.84;99989.03;1087697;54;19949;-86
2022/07/03 00:38:41;;;;;;;;;;;;;;;19.24;61.79;99997.84;1087352;54;20011;-84
2022/07/03 00:39:45;;;;;;;;;;;;;;;19.18;62.27;99989.47;1087369;54;19990;-84
2022/07/03 00:40:46;;;;;;;;;;;;;;;19.12;62.32;99987.56;1088712;39;20246;-87
2022/07/03 00:42:01;;;;;;;;;;;;;;;19.11;62.45;99985.91;1087733;54;20654;-83
2022/07/03 00:43:03;;;;;;;;;;;;;;;19.01;62.87;99991.69;1087736;54;19942;-84
2022/07/03 00:44:07;;;;;;;;;;;;;;;18.99;63.32;99992.91;1087739;54;19942;-85
2022/07/03 00:45:14;;;;;;;;;;;;;;;19.06;62.95;99988.38;1087736;54;19943;-85
2022/07/03 00:46:17;;;;;;;;;;;;;;;19.12;62.95;99987.56;1088706;47;19933;-82
2022/07/03 00:47:24;;;;;;;;;;;;;;;19.11;63.43;99994.03;1088165;54;19998;-85
2022/07/03 00:48:25;;;;;;;;;;;;;;;19.09;63.84;99993.38;1088676;47;19950;-84
2022/07/03 00:49:30;;;;;;;;;;;;;;;19.06;64.20;99992.94;1088127;54;19939;-83
2022/07/03 00:50:33;;;;;;;;;;;;;;;19.02;64.69;99996.09;1088149;54;20571;-84
2022/07/03 00:51:40;;;;;;;;;;;;;;;19.06;64.09;99993.81;1088123;54;19943;-85
2022/07/03 00:52:45;;;;;;;;;;;;;;;19.11;64.37;99993.19;1088058;54;19963;-84
2022/07/03 00:53:51;;;;;;;;;;;;;;;19.08;64.39;99993.59;1088177;54;19946;-85
2022/07/03 00:54:56;;;;;;;;;;;;;;;19.17;64.22;99992.38;1088159;54;19943;-85
2022/07/03 00:55:59;;;;;;;;;;;;;;;19.22;64.48;99991.78;1088113;54;19970;-84
2022/07/03 00:57:03;;;;;;;;;;;;;;;19.25;63.18;99992.19;1088172;54;19923;-84
2022/07/03 00:58:05;;;;;;;;;;;;;;;19.29;62.85;99998.03;1088097;54;19934;-83
2022/07/03 00:59:09;;;;;;;;;;;;;;;19.33;62.76;99999.31;1088068;54;20441;-84
2022/07/03 01:00:11;;;;;;;;;;;;;;;19.29;63.27;99996.19;1088172;54;19927;-84
2022/07/03 01:01:18;;;;;;;;;;;;;;;19.27;63.02;99990.13;1087629;54;19934;-85
2022/07/03 01:02:28;;;;;;;;;;;;;;;19.29;62.40;99998.91;1087758;54;19957;-85
2022/07/03 01:03:34;;;;;;;;;;;;;;;19.31;62.08;100001.38;1087922;54;19949;-83
2022/07/03 01:04:40;;;;;;;;;;;;;;;19.33;62.33;99996.59;1092328;39;20388;-84
2022/07/03 01:05:47;;;;;;;;;;;;;;;19.35;62.26;100005.38;1088175;54;19942;-84
2022/07/03 01:06:52;;;;;;;;;;;;;;;19.33;61.79;99999.31;1092196;39;20470;-84
2022/07/03 01:08:03;;;;;;;;;;;;;;;19.24;62.75;100000.53;1088141;54;19943;-83
2022/07/03 01:09:05;;;;;;;;;;;;;;;19.20;62.54;100002.81;1088441;54;19979;-84
2022/07/03 01:10:13;;;;;;;;;;;;;;;19.20;62.00;99996.56;1089139;46;19943;-85
2022/07/03 01:11:22;;;;;;;;;;;;;;;19.20;62.22;99996.56;1088519;54;19950;-85
2022/07/03 01:12:26;;;;;;;;;;;;;;;19.21;61.99;100003.66;1088505;54;19947;-85
2022/07/03 01:13:34;;;;;;;;;;;;;;;19.24;61.92;100005.97;1088408;54;19943;-84
2022/07/03 01:14:41;;;;;;;;;;;;;;;19.26;61.28;100003.88;1088451;54;19943;-83
2022/07/03 01:15:53;;;;;;;;;;;;;;;19.27;61.36;99998.25;1091218;39;20529;-83
2022/07/03 01:16:57;;;;;;;;;;;;;;;19.23;61.04;99999.69;1088007;54;19942;-84
2022/07/03 01:18:11;;;;;;;;;;;;;;;19.25;60.95;99992.19;1087992;54;19942;-83
2022/07/03 01:19:22;;;;;;;;;;;;;;;19.22;61.04;99989.06;1088055;54;19943;-84
2022/07/03 01:20:30;;;;;;;;;;;;;;;19.17;61.20;99993.22;1088370;39;20772;-84
2022/07/03 01:21:35;;;;;;;;;;;;;;;19.16;61.54;99988.00;1087973;54;19962;-85
2022/07/03 01:22:39;;;;;;;;;;;;;;;19.20;60.81;99993.84;1087998;54;20039;-84
2022/07/03 01:23:59;;;;;;;;;;;;;;;19.21;60.76;99996.38;1087991;54;19998;-83
2022/07/03 01:25:20;;;;;;;;;;;;;;;19.18;60.91;99994.88;1088914;46;19965;-85
2022/07/03 01:26:27;;;;;;;;;;;;;;;19.21;60.83;99995.50;1087968;54;19950;-85
2022/07/03 01:29:28;;;;;;;;;;;;;;;19.25;60.98;99984.06;1087276;54;20111;-86
2022/07/03 01:30:31;;;;;;;;;;;;;;;19.27;60.93;99984.72;1088636;46;19938;-84
2022/07/03 01:31:36;;;;;;;;;;;;;;;19.29;61.19;99979.94;1087832;54;19938;-88
2022/07/03 01:32:41;;;;;;;;;;;;;;;19.29;61.00;99984.50;1087774;54;19943;-85
2022/07/03 01:33:45;;;;;;;;;;;;;;;19.30;60.98;99983.47;1087845;54;20690;-85
2022/07/03 01:34:50;;;;;;;;;;;;;;;19.29;60.97;99984.50;1088198;39;20299;-86
2022/07/03 01:36:00;;;;;;;;;;;;;;;19.30;60.86;99980.75;1087887;54;19926;-85
2022/07/03 01:37:02;;;;;;;;;;;;;;;19.33;60.72;99986.59;1091481;39;20667;-85
2022/07/03 01:38:08;;;;;;;;;;;;;;;19.33;60.57;99983.06;1088189;54;19945;-86
2022/07/03 01:39:10;;;;;;;;;;;;;;;19.35;60.52;99978.28;1088131;54;19998;-87
2022/07/03 01:40:14;;;;;;;;;;;;;;;19.37;60.76;99978.88;1092266;39;20665;-85
2022/07/03 01:41:15;;;;;;;;;;;;;;;19.33;61.00;99983.88;1088208;54;19930;-85
2022/07/03 01:42:22;;;;;;;;;;;;;;;19.33;61.19;99977.63;1088924;31;20599;-86
2022/07/03 01:43:25;;;;;;;;;;;;;;;19.34;61.21;99973.88;1088233;54;19949;-84
2022/07/03 01:44:31;;;;;;;;;;;;;;;19.34;61.24;99973.88;1088231;54;20043;-85
2022/07/03 01:45:34;;;;;;;;;;;;;;;19.32;62.23;99981.38;1088287;54;19943;-88
2022/07/03 01:46:39;;;;;;;;;;;;;;;19.30;61.66;99976.19;1088164;54;20563;-86
2022/07/03 01:47:41;;;;;;;;;;;;;;;19.31;61.47;99975.16;1088201;54;19958;-86
2022/07/03 01:48:46;;;;;;;;;;;;;;;19.24;62.32;99973.44;1087735;54;19990;-85
2022/07/03 01:49:49;;;;;;;;;;;;;;;19.14;62.83;99985.50;1087755;54;19942;-84
2022/07/03 01:50:53;;;;;;;;;;;;;;;19.13;62.72;99977.56;1087703;54;19987;-86
2022/07/03 01:51:56;;;;;;;;;;;;;;;19.11;62.42;99980.47;1087676;54;20970;-86
2022/07/03 01:53:03;;;;;;;;;;;;;;;19.13;62.59;99982.97;1087678;54;20022;-86
2022/07/03 01:54:04;;;;;;;;;;;;;;;19.10;62.69;99983.41;1087692;54;19980;-87
2022/07/03 01:55:09;;;;;;;;;;;;;;;19.05;63.22;99975.88;1087618;54;19942;-85
2022/07/03 01:56:11;;;;;;;;;;;;;;;19.06;62.52;99980.25;1089107;39;20688;-86
2022/07/03 01:57:15;;;;;;;;;;;;;;;19.05;62.56;99975.03;1087739;54;19943;-84
2022/07/03 01:58:19;;;;;;;;;;;;;;;19.04;62.82;99973.34;1087643;54;19949;-87
2022/07/03 01:59:22;;;;;;;;;;;;;;;19.05;62.41;99975.88;1087851;54;19955;-85
2022/07/03 02:00:24;;;;;;;;;;;;;;;19.05;62.77;99975.88;1087809;54;19942;-85
2022/07/03 02:01:28;;;;;;;;;;;;;;;19.01;63.13;99975.44;1087725;54;19930;-85
2022/07/03 02:02:32;;;;;;;;;;;;;;;19.01;62.96;99972.75;1087732;54;19950;-85
2022/07/03 02:03:37;;;;;;;;;;;;;;;18.98;63.08;99981.25;1087724;54;19967;-85
2022/07/03 02:04:54;;;;;;;;;;;;;;;19.00;62.66;99972.91;1088169;54;20643;-86
2022/07/03 02:06:04;;;;;;;;;;;;;;;18.99;62.78;99982.09;1088306;54;19935;-87
2022/07/03 02:07:08;;;;;;;;;;;;;;;18.94;63.16;99979.97;1088197;54;19962;-88
2022/07/03 02:08:27;;;;;;;;;;;;;;;18.87;63.40;99989.91;1088348;54;19990;-89
2022/07/03 02:09:46;;;;;;;;;;;;;;;18.82;63.62;99982.41;1088733;46;19934;-86
2022/07/03 02:10:57;;;;;;;;;;;;;;;18.84;63.45;99985.75;1088719;54;19961;-85
2022/07/03 02:12:02;;;;;;;;;;;;;;;18.87;63.05;99976.38;1088670;54;19927;-84
2022/07/03 02:13:07;;;;;;;;;;;;;;;18.86;63.26;99983.69;1088656;54;19950;-85
2022/07/03 02:14:16;;;;;;;;;;;;;;;18.85;63.31;99984.72;1088718;54;19934;-85
2022/07/03 02:15:18;;;;;;;;;;;;;;;18.82;63.28;99979.69;1088792;54;19950;-86
2022/07/03 02:16:25;;;;;;;;;;;;;;;18.83;63.32;99985.97;1088708;54;19930;-85
2022/07/03 02:17:28;;;;;;;;;;;;;;;18.82;63.04;99979.69;1088724;54;19998;-84
2022/07/03 02:18:34;;;;;;;;;;;;;;;18.82;63.11;99982.41;1088649;54;19923;-84
2022/07/03 02:19:38;;;;;;;;;;;;;;;18.83;62.97;99980.53;1089697;46;20023;-85
2022/07/03 02:20:48;;;;;;;;;;;;;;;18.82;63.05;99974.28;1089617;46;19931;-85
2022/07/03 02:21:50;;;;;;;;;;;;;;;18.80;63.23;99979.06;1088361;54;19930;-84
2022/07/03 02:22:57;;;;;;;;;;;;;;;18.82;63.17;99970.75;1088384;54;19945;-84
2022/07/03 02:24:16;;;;;;;;;;;;;;;18.78;63.39;99980.28;1087934;54;19966;-85
2022/07/03 02:25:21;;;;;;;;;;;;;;;18.65;64.36;99972.94;1088023;54;19939;-84
2022/07/03 02:26:27;;;;;;;;;;;;;;;18.64;64.40;99973.97;1088242;54;19954;-85
2022/07/03 02:27:31;;;;;;;;;;;;;;;18.64;63.71;99973.97;1088375;54;19966;-84
2022/07/03 02:28:40;;;;;;;;;;;;;;;18.63;63.71;99980.41;1088352;54;19974;-84
2022/07/03 02:29:49;;;;;;;;;;;;;;;18.60;64.12;99975.41;1088152;54;19947;-85
2022/07/03 02:30:51;;;;;;;;;;;;;;;18.63;63.61;99983.13;1089087;46;19950;-86
2022/07/03 02:31:59;;;;;;;;;;;;;;;18.63;63.65;99981.28;1088389;54;19927;-84
2022/07/03 02:33:01;;;;;;;;;;;;;;;18.64;63.54;99968.56;1091320;39;20823;-85
2022/07/03 02:34:05;;;;;;;;;;;;;;;18.59;64.20;99979.97;1088352;54;19949;-86
2022/07/03 02:35:07;;;;;;;;;;;;;;;18.52;64.83;99971.81;1088252;54;19966;-82
2022/07/03 02:36:14;;;;;;;;;;;;;;;18.53;64.28;99975.38;1087883;54;19943;-85
2022/07/03 02:37:17;;;;;;;;;;;;;;;18.52;64.72;99974.53;1088388;39;20589;-86
2022/07/03 02:38:23;;;;;;;;;;;;;;;18.49;64.49;99983.06;1087932;54;19949;-86
2022/07/03 02:39:26;;;;;;;;;;;;;;;18.51;64.23;99978.28;1087930;54;19975;-85
2022/07/03 02:40:33;;;;;;;;;;;;;;;18.52;64.62;99979.94;1087895;54;19955;-86
2022/07/03 02:41:40;;;;;;;;;;;;;;;18.48;64.76;99977.81;1087885;54;19973;-85
2022/07/03 02:42:48;;;;;;;;;;;;;;;18.51;64.21;99977.44;1087905;54;19966;-86
2022/07/03 02:43:52;;;;;;;;;;;;;;;18.53;64.37;99978.91;1088001;54;19966;-86
2022/07/03 02:45:00;;;;;;;;;;;;;;;18.55;63.94;99984.13;1087961;54;19942;-87
2022/07/03 02:46:48;;;;;;;;;;;;;;;18.55;64.19;99984.13;1087837;54;19943;-86
2022/07/03 02:47:33;;;;;;;;;;;;;;;18.49;64.31;99982.22;1087928;54;19939;-85
2022/07/03 02:48:36;;;;;;;;;;;;;;;18.45;64.72;99981.78;1087896;54;20038;-84
2022/07/03 02:49:50;;;;;;;;;;;;;;;18.43;64.30;99983.84;1087999;54;19943;-86
2022/07/03 02:50:55;;;;;;;;;;;;;;;18.38;64.70;99984.44;1087908;54;20011;-84
2022/07/03 02:52:09;;;;;;;;;;;;;;;18.35;64.73;99981.28;1087981;54;19950;-84
2022/07/03 02:53:16;;;;;;;;;;;;;;;18.35;64.97;99981.28;1088755;39;20729;-85
2022/07/03 02:54:20;;;;;;;;;;;;;;;18.34;64.82;99975.03;1087948;54;19965;-86
2022/07/03 02:55:31;;;;;;;;;;;;;;;18.34;64.71;99985.03;1087888;54;20017;-84
2022/07/03 02:56:41;;;;;;;;;;;;;;;18.32;65.00;99981.69;1087998;54;19954;-84
2022/07/03 02:57:43;;;;;;;;;;;;;;;18.32;64.63;99981.69;1088429;39;20609;-83
2022/07/03 02:59:06;;;;;;;;;;;;;;;18.29;64.91;99984.78;1087981;54;19943;-84
2022/07/03 04:27:58;;;;;;;;;;;;;;;17.83;67.03;100042.81;1087950;47;20093;-79
2022/07/03 04:29:03;;;;;;;;;;;;;;;17.85;67.04;100047.03;1086182;54;19951;-78
2022/07/03 04:30:10;;;;;;;;;;;;;;;17.85;66.68;100047.03;1086385;54;19950;-77
2022/07/03 04:31:29;;;;;;;;;;;;;;;17.87;66.71;100041.41;1086400;54;19953;-79
2022/07/03 04:32:33;;;;;;;;;;;;;;;17.87;66.62;100047.66;1086240;54;19998;-79
2022/07/03 04:35:45;;;;;;;;;;;;;;;17.90;66.76;100051.84;1086560;54;20003;-77
2022/07/03 04:36:50;;;;;;;;;;;;;;;17.89;66.73;100048.28;1085855;47;19955;-79
2022/07/03 04:37:54;;;;;;;;;;;;;;;17.93;66.53;100044.19;1085555;54;19974;-78
2022/07/03 04:38:55;;;;;;;;;;;;;;;17.96;66.35;100040.28;1089636;39;20431;-79
2022/07/03 04:39:59;;;;;;;;;;;;;;;17.94;66.93;100042.31;1086613;54;19950;-78
2022/07/03 04:41:00;;;;;;;;;;;;;;;17.87;66.92;100044.13;1087051;54;19942;-79
2022/07/03 04:42:04;;;;;;;;;;;;;;;17.84;67.02;100047.19;1086376;54;19994;-78
2022/07/03 04:43:06;;;;;;;;;;;;;;;17.77;67.13;100044.41;1086200;54;19942;-78
2022/07/03 04:44:28;;;;;;;;;;;;;;;17.76;67.10;100040.88;1087121;54;19957;-80
2022/07/03 04:45:32;;;;;;;;;;;;;;;17.62;67.50;100045.31;1087403;54;20033;-80
2022/07/03 04:46:37;;;;;;;;;;;;;;;17.61;67.92;100051.75;1087230;54;19950;-79
2022/07/03 04:47:38;;;;;;;;;;;;;;;17.60;67.88;100055.47;1087815;54;19946;-80
2022/07/03 04:49:00;;;;;;;;;;;;;;;17.59;68.07;100051.09;1087974;54;19946;-80
2022/07/03 04:50:01;;;;;;;;;;;;;;;17.64;67.80;100053.22;1088004;54;19950;-79
2022/07/03 04:51:05;;;;;;;;;;;;;;;17.73;67.29;100059.38;1087935;54;19946;-79
2022/07/03 04:52:06;;;;;;;;;;;;;;;17.77;67.24;100066.91;1087559;54;19935;-79
2022/07/03 04:53:10;;;;;;;;;;;;;;;17.76;67.36;100065.22;1087155;54;19954;-78
2022/07/03 04:54:11;;;;;;;;;;;;;;;17.79;67.31;100064.00;1086903;54;20464;-77
2022/07/03 04:55:15;;;;;;;;;;;;;;;17.83;67.21;100065.28;1088062;39;20326;-77
2022/07/03 04:56:16;;;;;;;;;;;;;;;17.85;67.66;100065.09;1087336;54;19939;-78
2022/07/03 04:58:39;;;;;;;;;;;;;;;17.93;66.92;100068.53;1087449;46;19942;-78
2022/07/03 04:59:40;;;;;;;;;;;;;;;17.87;67.14;100066.56;1086129;54;19947;-80
2022/07/03 05:00:48;;;;;;;;;;;;;;;17.88;66.85;100067.44;1087688;39;20395;-78
2022/07/03 05:01:49;;;;;;;;;;;;;;;17.93;66.84;100065.81;1087379;54;19962;-80
2022/07/03 05:02:54;;;;;;;;;;;;;;;17.98;66.69;100067.97;1086729;54;20432;-78
2022/07/03 05:03:56;;;;;;;;;;;;;;;18.03;66.26;100065.53;1086227;54;20002;-79
2022/07/03 05:05:00;;;;;;;;;;;;;;;18.06;65.98;100073.25;1085869;54;19958;-79
2022/07/03 05:06:04;;;;;;;;;;;;;;;18.12;65.77;100063.53;1087138;54;19947;-79
2022/07/03 05:07:05;;;;;;;;;;;;;;;18.16;65.51;100070.22;1087207;54;19947;-78
2022/07/03 05:08:09;;;;;;;;;;;;;;;18.18;65.71;100068.16;1087639;54;19954;-79
2022/07/03 05:09:10;;;;;;;;;;;;;;;18.18;65.24;100062.75;1089619;39;20397;-79
2022/07/03 05:10:14;;;;;;;;;;;;;;;18.15;65.52;100068.53;1094173;31;20454;-79
2022/07/03 05:11:20;;;;;;;;;;;;;;;18.17;65.14;100061.06;1086446;54;19946;-78
2022/07/03 05:12:24;;;;;;;;;;;;;;;18.24;65.25;100063.84;1087390;39;20353;-78
2022/07/03 05:13:35;;;;;;;;;;;;;;;18.24;65.13;100071.94;1086869;54;19973;-80
2022/07/03 05:14:51;;;;;;;;;;;;;;;18.20;65.42;100065.25;1086937;54;19960;-78
2022/07/03 05:16:10;;;;;;;;;;;;;;;18.31;64.94;100072.84;1086980;54;19938;-79
2022/07/03 05:17:12;;;;;;;;;;;;;;;18.17;65.44;100066.47;1087038;54;19947;-79
2022/07/03 05:18:16;;;;;;;;;;;;;;;18.12;65.74;100073.50;1087036;54;19957;-79
2022/07/03 05:19:21;;;;;;;;;;;;;;;18.22;65.37;100069.47;1086846;54;19951;-79
2022/07/03 05:20:28;;;;;;;;;;;;;;;18.33;65.07;100069.94;1087656;54;19938;-79
2022/07/03 05:21:33;;;;;;;;;;;;;;;18.28;65.33;100067.81;1087304;47;19947;-79
2022/07/03 05:22:35;;;;;;;;;;;;;;;18.34;65.01;100071.59;1087239;54;19957;-78
2022/07/03 05:23:42;;;;;;;;;;;;;;;18.42;64.62;100074.16;1086966;54;19950;-79
2022/07/03 05:24:43;;;;;;;;;;;;;;;18.39;64.61;100066.47;1087849;54;19955;-79
2022/07/03 05:25:50;;;;;;;;;;;;;;;18.29;64.78;100074.06;1087801;54;19946;-79
2022/07/03 05:26:54;;;;;;;;;;;;;;;18.29;65.02;100071.38;1086241;54;19949;-80
2022/07/03 05:28:01;;;;;;;;;;;;;;;18.33;65.13;100073.50;1087544;54;19942;-79
2022/07/03 05:29:03;;;;;;;;;;;;;;;18.36;64.87;100074.97;1087623;54;19946;-78
2022/07/03 05:30:08;;;;;;;;;;;;;;;18.37;64.82;100071.22;1086721;54;19957;-79
2022/07/03 05:31:15;;;;;;;;;;;;;;;18.33;65.14;100069.94;1087292;54;20014;-79
2022/07/03 05:32:16;;;;;;;;;;;;;;;18.37;64.64;100065.81;1088025;54;19950;-79
2022/07/03 05:33:20;;;;;;;;;;;;;;;18.43;64.79;100062.31;1087853;54;19945;-78
2022/07/03 05:34:21;;;;;;;;;;;;;;;18.48;64.60;100065.28;1086970;54;19938;-78
2022/07/03 05:35:25;;;;;;;;;;;;;;;18.53;64.32;100064.69;1087849;54;20433;-80
2022/07/03 05:36:27;;;;;;;;;;;;;;;18.61;63.96;100061.84;1088451;54;20480;-80
2022/07/03 05:37:31;;;;;;;;;;;;;;;18.68;63.97;100067.31;1088259;54;19954;-79
2022/07/03 05:39:49;;;;;;;;;;;;;;;18.78;63.63;100066.94;1088023;54;19951;-79
2022/07/03 05:40:53;;;;;;;;;;;;;;;18.84;63.45;100067.00;1087741;54;19951;-80
2022/07/03 05:41:54;;;;;;;;;;;;;;;18.89;63.15;100062.88;1087639;54;19943;-79
2022/07/03 05:42:58;;;;;;;;;;;;;;;18.90;63.06;100054.53;1087063;54;19954;-79
2022/07/03 05:44:00;;;;;;;;;;;;;;;18.94;63.03;100060.41;1087215;46;19947;-79
2022/07/03 05:45:04;;;;;;;;;;;;;;;19.03;62.74;100064.63;1087911;54;19993;-80
2022/07/03 05:46:05;;;;;;;;;;;;;;;19.08;63.03;100067.56;1087742;54;20445;-79
2022/07/03 05:47:12;;;;;;;;;;;;;;;19.12;62.81;100063.44;1086985;54;20065;-79
2022/07/03 05:48:13;;;;;;;;;;;;;;;19.18;62.51;100062.63;1087103;54;20559;-79
2022/07/03 05:49:17;;;;;;;;;;;;;;;19.20;62.37;100065.16;1086615;54;20007;-79
2022/07/03 05:50:18;;;;;;;;;;;;;;;19.20;62.37;100059.72;1087560;54;19939;-80
2022/07/03 05:51:22;;;;;;;;;;;;;;;19.22;62.10;100060.38;1088536;54;19943;-80
2022/07/03 05:52:23;;;;;;;;;;;;;;;19.19;62.52;100063.47;1090391;39;20404;-79
2022/07/03 05:53:27;;;;;;;;;;;;;;;19.20;62.18;100061.59;1087826;39;20581;-78
2022/07/03 05:54:28;;;;;;;;;;;;;;;19.19;62.35;100063.47;1087657;54;19922;-80
2022/07/03 05:55:32;;;;;;;;;;;;;;;19.19;62.36;100060.75;1087811;54;19946;-78
2022/07/03 05:56:33;;;;;;;;;;;;;;;19.25;62.47;100061.81;1087881;54;19947;-78
2022/07/03 05:57:37;;;;;;;;;;;;;;;19.30;62.31;100064.75;1086741;54;19939;-78
2022/07/03 05:58:41;;;;;;;;;;;;;;;19.38;62.34;100067.28;1086748;54;19950;-79
2022/07/03 05:59:45;;;;;;;;;;;;;;;19.35;61.98;100056.03;1087461;54;19942;-78
2022/07/03 06:00:46;;;;;;;;;;;;;;;19.36;62.26;100057.69;1086661;54;19951;-78
2022/07/03 06:01:50;;;;;;;;;;;;;;;19.35;62.49;100059.59;1087825;39;20376;-80
2022/07/03 06:02:56;;;;;;;;;;;;;;;19.40;62.15;100056.25;1086955;54;19939;-79
2022/07/03 06:12:46;;;;;;;;;;;;;;;19.72;61.43;100061.97;1085536;54;19937;-78
2022/07/03 06:13:49;;;;;;;;;;;;;;;19.81;61.01;100063.47;1087482;54;19939;-80
2022/07/03 06:14:53;;;;;;;;;;;;;;;19.84;61.05;100064.94;1086746;54;19947;-79
2022/07/03 06:15:55;;;;;;;;;;;;;;;19.86;61.00;100062.88;1087597;54;19973;-80
2022/07/03 06:16:59;;;;;;;;;;;;;;;19.93;60.78;100059.16;1087169;54;19942;-78
2022/07/03 06:18:03;;;;;;;;;;;;;;;20.01;60.65;100068.13;1087326;54;19943;-79
2022/07/03 06:19:07;;;;;;;;;;;;;;;20.03;60.36;100064.16;1087141;54;19957;-80
2022/07/03 06:20:08;;;;;;;;;;;;;;;20.06;60.43;100063.75;1087132;54;19950;-79
2022/07/03 06:21:12;;;;;;;;;;;;;;;20.15;60.43;100061.69;1086656;54;20054;-80
2022/07/03 06:22:14;;;;;;;;;;;;;;;20.13;60.08;100063.75;1087787;46;19962;-79
2022/07/03 06:23:17;;;;;;;;;;;;;;;20.19;60.15;100056.66;1088178;39;20423;-80
2022/07/03 06:24:19;;;;;;;;;;;;;;;20.25;60.27;100063.97;1087995;54;19950;-79
2022/07/03 06:25:23;;;;;;;;;;;;;;;20.31;60.12;100062.31;1087401;54;19950;-79
2022/07/03 06:26:24;;;;;;;;;;;;;;;20.32;59.75;100064.81;1087962;54;19968;-79
2022/07/03 06:27:28;;;;;;;;;;;;;;;20.37;59.78;100059.59;1087818;54;19943;-79
2022/07/03 06:28:29;;;;;;;;;;;;;;;20.41;59.54;100058.13;1087485;54;19946;-79
2022/07/03 06:29:33;;;;;;;;;;;;;;;20.47;59.48;100058.34;1087824;54;19949;-79
2022/07/03 06:30:34;;;;;;;;;;;;;;;20.51;59.19;100060.44;1087959;54;19950;-80
2022/07/03 06:31:38;;;;;;;;;;;;;;;20.53;59.29;100063.78;1087804;54;19962;-79
2022/07/03 06:32:39;;;;;;;;;;;;;;;20.56;58.88;100057.09;1087602;54;19938;-81
2022/07/03 06:33:46;;;;;;;;;;;;;;;20.60;59.02;100052.06;1087493;54;19949;-79
2022/07/03 06:34:53;;;;;;;;;;;;;;;20.66;58.89;100062.06;1088692;39;20564;-79
2022/07/03 06:37:28;;;;;;;;;;;;;;;20.73;58.89;100052.06;1088280;54;19947;-80
2022/07/03 06:38:29;;;;;;;;;;;;;;;20.77;58.43;100055.22;1088204;54;19973;-80
2022/07/03 06:39:34;;;;;;;;;;;;;;;20.82;58.59;100060.81;1088246;54;20863;-81
2022/07/03 06:40:35;;;;;;;;;;;;;;;20.86;58.69;100056.66;1088243;54;19951;-80
2022/07/03 06:41:58;;;;;;;;;;;;;;;20.93;58.46;100059.31;1087940;54;20492;-79
2022/07/03 06:42:59;;;;;;;;;;;;;;;20.97;58.38;100060.59;1086958;54;20007;-79
2022/07/03 06:44:03;;;;;;;;;;;;;;;21.01;58.68;100054.50;1086575;54;20039;-78
2022/07/03 06:45:05;;;;;;;;;;;;;;;21.08;58.19;100059.94;1087578;54;19935;-79
2022/07/03 06:46:09;;;;;;;;;;;;;;;21.11;57.94;100053.22;1087396;54;19950;-80
2022/07/03 06:47:13;;;;;;;;;;;;;;;21.19;57.78;100050.28;1087082;54;19954;-80
2022/07/03 06:48:14;;;;;;;;;;;;;;;21.30;57.93;100056.94;1086686;54;19953;-80
2022/07/03 06:49:20;;;;;;;;;;;;;;;21.38;57.77;100053.13;1087023;54;19950;-79
2022/07/03 06:50:22;;;;;;;;;;;;;;;21.41;57.22;100052.69;1087778;54;19951;-80
2022/07/03 06:51:26;;;;;;;;;;;;;;;21.48;57.25;100058.94;1087793;54;19942;-80
2022/07/03 06:52:27;;;;;;;;;;;;;;;21.57;56.98;100052.19;1087885;54;19966;-80
2022/07/03 06:53:31;;;;;;;;;;;;;;;21.65;56.80;100053.88;1087638;54;19942;-81
2022/07/03 06:54:32;;;;;;;;;;;;;;;21.77;56.74;100059.44;1087900;54;19934;-80
2022/07/03 06:55:37;;;;;;;;;;;;;;;21.82;56.42;100054.19;1087877;54;19942;-80
2022/07/03 06:56:38;;;;;;;;;;;;;;;21.87;56.05;100056.25;1088179;46;19953;-78
2022/07/03 06:57:42;;;;;;;;;;;;;;;21.96;56.28;100055.75;1088401;46;19946;-81
2022/07/03 06:58:43;;;;;;;;;;;;;;;22.05;55.93;100055.50;1089695;39;20431;-81
2022/07/03 06:59:48;;;;;;;;;;;;;;;22.06;55.39;100055.25;1087916;54;19946;-80
2022/07/03 07:00:49;;;;;;;;;;;;;;;22.07;55.70;100056.09;1090055;39;20020;-81
2022/07/03 07:01:53;;;;;;;;;;;;;;;22.17;55.41;100061.03;1088819;39;20365;-80
2022/07/03 07:02:54;;;;;;;;;;;;;;;22.26;55.19;100054.28;1087298;54;19951;-80
2022/07/03 07:03:58;;;;;;;;;;;;;;;22.39;55.15;100053.31;1088653;46;19947;-81
2022/07/03 07:05:02;;;;;;;;;;;;;;;22.48;54.69;100054.78;1087549;54;19946;-79
2022/07/03 07:06:06;;;;;;;;;;;;;;;22.59;54.46;100054.00;1086610;46;19962;-79
2022/07/03 07:07:07;;;;;;;;;;;;;;;22.73;54.38;100048.44;1087822;54;19950;-81
2022/07/03 07:08:11;;;;;;;;;;;;;;;22.82;53.88;100057.16;1088091;54;19943;-79
2022/07/03 07:09:12;;;;;;;;;;;;;;;22.85;53.87;100057.56;1088225;54;19961;-82
2022/07/03 07:10:16;;;;;;;;;;;;;;;22.88;53.33;100058.97;1088314;54;19954;-82
2022/07/03 07:19:41;;;;;;;;;;;;;;;23.29;51.50;100064.84;1087722;54;20002;-79
2022/07/03 07:20:52;;;;;;;;;;;;;;;23.36;51.47;100063.72;1087435;54;19939;-80
2022/07/03 07:22:05;;;;;;;;;;;;;;;23.53;51.28;100063.06;1087790;54;19950;-80
2022/07/03 07:23:25;;;;;;;;;;;;;;;23.74;51.08;100061.72;1087732;54;19934;-80
2022/07/03 07:24:26;;;;;;;;;;;;;;;23.80;50.64;100065.41;1087767;54;19998;-81
2022/07/03 07:25:35;;;;;;;;;;;;;;;23.77;50.14;100058.53;1087687;46;19943;-80
2022/07/03 07:26:40;;;;;;;;;;;;;;;23.72;49.43;100061.13;1087263;54;19955;-80
2022/07/03 07:27:55;;;;;;;;;;;;;;;23.70;49.09;100056.97;1087436;54;19950;-81
2022/07/03 07:28:56;;;;;;;;;;;;;;;24.00;49.34;100062.41;1087102;54;19950;-80